sensor_id;sensor_type;location;lat;lon;timestamp;P1;durP1;ratioP1;P2;durP2;ratioP2
8401;SDS011;4238;48.404;9.498;2023-03-17T00:00:48;6.87;;;5.47;;
8401;SDS011;4238;48.404;9.498;2023-03-17T00:03:18;5.87;;;5.27;;
8401;SDS011;4238;48.404;9.498;2023-03-17T00:05:49;6.23;;;5.63;;
8401;SDS011;4238;48.404;9.498;2023-03-17T00:08:19;6.77;;;5.70;;
8401;SDS011;4238;48.404;9.498;2023-03-17T00:10:48;6.20;;;5.07;;
8401;SDS011;4238;48.404;9.498;2023-03-17T00:13:15;6.47;;;5.87;;
8401;SDS011;4238;48.404;9.498;2023-03-17T00:15:42;5.47;;;4.90;;
8401;SDS011;4238;48.404;9.498;2023-03-17T00:18:10;7.30;;;5.80;;
8401;SDS011;4238;48.404;9.498;2023-03-17T00:20:40;7.03;;;5.87;;
8401;SDS011;4238;48.404;9.498;2023-03-17T00:23:10;5.90;;;5.27;;
8401;SDS011;4238;48.404;9.498;2023-03-17T00:25:41;6.33;;;5.40;;
8401;SDS011;4238;48.404;9.498;2023-03-17T00:28:12;6.63;;;5.87;;
8401;SDS011;4238;48.404;9.498;2023-03-17T00:30:42;5.40;;;5.00;;
8401;SDS011;4238;48.404;9.498;2023-03-17T00:33:10;6.63;;;5.93;;
8401;SDS011;4238;48.404;9.498;2023-03-17T00:35:37;6.13;;;5.53;;
8401;SDS011;4238;48.404;9.498;2023-03-17T00:38:05;5.63;;;5.13;;
8401;SDS011;4238;48.404;9.498;2023-03-17T00:40:33;6.87;;;5.77;;
8401;SDS011;4238;48.404;9.498;2023-03-17T00:43:00;12.10;;;8.27;;
8401;SDS011;4238;48.404;9.498;2023-03-17T00:45:27;11.57;;;7.50;;
8401;SDS011;4238;48.404;9.498;2023-03-17T00:47:54;8.37;;;6.27;;
8401;SDS011;4238;48.404;9.498;2023-03-17T00:50:22;8.70;;;6.53;;
8401;SDS011;4238;48.404;9.498;2023-03-17T00:52:51;7.47;;;5.80;;
8401;SDS011;4238;48.404;9.498;2023-03-17T00:55:20;7.93;;;6.37;;
8401;SDS011;4238;48.404;9.498;2023-03-17T00:57:50;7.93;;;6.27;;
8401;SDS011;4238;48.404;9.498;2023-03-17T01:00:19;6.90;;;6.20;;
8401;SDS011;4238;48.404;9.498;2023-03-17T01:02:48;6.43;;;5.80;;
8401;SDS011;4238;48.404;9.498;2023-03-17T01:05:16;6.37;;;5.50;;
8401;SDS011;4238;48.404;9.498;2023-03-17T01:07:44;9.03;;;6.40;;
8401;SDS011;4238;48.404;9.498;2023-03-17T01:10:17;6.93;;;5.73;;
8401;SDS011;4238;48.404;9.498;2023-03-17T01:12:48;7.10;;;6.17;;
8401;SDS011;4238;48.404;9.498;2023-03-17T01:15:16;8.00;;;6.87;;
8401;SDS011;4238;48.404;9.498;2023-03-17T01:17:45;7.43;;;6.70;;
8401;SDS011;4238;48.404;9.498;2023-03-17T01:20:15;8.07;;;6.80;;
8401;SDS011;4238;48.404;9.498;2023-03-17T01:22:44;8.47;;;6.60;;
8401;SDS011;4238;48.404;9.498;2023-03-17T01:25:11;7.47;;;6.47;;
8401;SDS011;4238;48.404;9.498;2023-03-17T01:27:41;8.07;;;6.97;;
8401;SDS011;4238;48.404;9.498;2023-03-17T01:30:14;7.47;;;6.70;;
8401;SDS011;4238;48.404;9.498;2023-03-17T01:32:47;7.80;;;6.83;;
8401;SDS011;4238;48.404;9.498;2023-03-17T01:35:15;8.27;;;6.83;;
8401;SDS011;4238;48.404;9.498;2023-03-17T01:37:43;7.53;;;6.47;;
8401;SDS011;4238;48.404;9.498;2023-03-17T01:40:12;7.87;;;6.53;;
8401;SDS011;4238;48.404;9.498;2023-03-17T01:42:42;7.77;;;7.00;;
8401;SDS011;4238;48.404;9.498;2023-03-17T01:48:19;7.77;;;6.97;;
8401;SDS011;4238;48.404;9.498;2023-03-17T01:50:47;6.90;;;6.30;;
8401;SDS011;4238;48.404;9.498;2023-03-17T01:53:15;6.60;;;6.00;;
8401;SDS011;4238;48.404;9.498;2023-03-17T01:55:44;6.73;;;5.90;;
8401;SDS011;4238;48.404;9.498;2023-03-17T01:58:11;7.37;;;6.23;;
8401;SDS011;4238;48.404;9.498;2023-03-17T02:00:41;8.73;;;7.30;;
8401;SDS011;4238;48.404;9.498;2023-03-17T02:03:10;7.30;;;6.57;;
8401;SDS011;4238;48.404;9.498;2023-03-17T02:05:39;7.90;;;6.30;;
8401;SDS011;4238;48.404;9.498;2023-03-17T02:08:07;7.10;;;6.40;;
8401;SDS011;4238;48.404;9.498;2023-03-17T02:10:36;8.80;;;6.83;;
8401;SDS011;4238;48.404;9.498;2023-03-17T02:13:03;7.57;;;6.67;;
8401;SDS011;4238;48.404;9.498;2023-03-17T02:15:35;7.20;;;5.87;;
8401;SDS011;4238;48.404;9.498;2023-03-17T02:18:04;7.83;;;6.63;;
8401;SDS011;4238;48.404;9.498;2023-03-17T02:23:39;6.83;;;6.13;;
8401;SDS011;4238;48.404;9.498;2023-03-17T02:26:06;7.53;;;5.97;;
8401;SDS011;4238;48.404;9.498;2023-03-17T02:28:34;6.53;;;5.90;;
8401;SDS011;4238;48.404;9.498;2023-03-17T02:31:01;7.53;;;6.73;;
8401;SDS011;4238;48.404;9.498;2023-03-17T02:33:28;7.30;;;5.93;;
8401;SDS011;4238;48.404;9.498;2023-03-17T02:35:55;7.37;;;6.67;;
8401;SDS011;4238;48.404;9.498;2023-03-17T02:38:22;7.60;;;6.80;;
8401;SDS011;4238;48.404;9.498;2023-03-17T02:40:51;7.33;;;6.50;;
8401;SDS011;4238;48.404;9.498;2023-03-17T02:43:18;11.63;;;8.10;;
8401;SDS011;4238;48.404;9.498;2023-03-17T02:45:45;8.30;;;7.33;;
8401;SDS011;4238;48.404;9.498;2023-03-17T02:48:12;10.17;;;7.80;;
8401;SDS011;4238;48.404;9.498;2023-03-17T02:50:39;10.53;;;7.67;;
8401;SDS011;4238;48.404;9.498;2023-03-17T02:53:06;8.50;;;7.67;;
8401;SDS011;4238;48.404;9.498;2023-03-17T02:55:33;8.87;;;7.97;;
8401;SDS011;4238;48.404;9.498;2023-03-17T02:58:01;10.27;;;7.47;;
8401;SDS011;4238;48.404;9.498;2023-03-17T03:00:28;10.37;;;8.80;;
8401;SDS011;4238;48.404;9.498;2023-03-17T03:02:55;8.03;;;7.00;;
8401;SDS011;4238;48.404;9.498;2023-03-17T03:05:22;8.90;;;8.00;;
8401;SDS011;4238;48.404;9.498;2023-03-17T03:07:49;8.40;;;7.50;;
8401;SDS011;4238;48.404;9.498;2023-03-17T03:10:16;9.47;;;8.17;;
8401;SDS011;4238;48.404;9.498;2023-03-17T03:12:43;7.73;;;6.93;;
8401;SDS011;4238;48.404;9.498;2023-03-17T03:15:12;9.33;;;7.63;;
8401;SDS011;4238;48.404;9.498;2023-03-17T03:17:39;8.67;;;7.23;;
8401;SDS011;4238;48.404;9.498;2023-03-17T03:20:07;9.53;;;7.90;;
8401;SDS011;4238;48.404;9.498;2023-03-17T03:22:37;8.10;;;7.30;;
8401;SDS011;4238;48.404;9.498;2023-03-17T03:25:04;8.67;;;7.73;;
8401;SDS011;4238;48.404;9.498;2023-03-17T03:27:32;8.83;;;7.63;;
8401;SDS011;4238;48.404;9.498;2023-03-17T03:30:00;8.63;;;7.73;;
8401;SDS011;4238;48.404;9.498;2023-03-17T03:32:28;9.10;;;7.10;;
8401;SDS011;4238;48.404;9.498;2023-03-17T03:34:55;8.83;;;7.93;;
8401;SDS011;4238;48.404;9.498;2023-03-17T03:37:22;10.87;;;8.07;;
8401;SDS011;4238;48.404;9.498;2023-03-17T03:39:49;9.03;;;8.13;;
8401;SDS011;4238;48.404;9.498;2023-03-17T03:42:16;10.10;;;8.50;;
8401;SDS011;4238;48.404;9.498;2023-03-17T03:44:43;9.67;;;8.60;;
8401;SDS011;4238;48.404;9.498;2023-03-17T03:47:10;9.57;;;8.43;;
8401;SDS011;4238;48.404;9.498;2023-03-17T03:49:38;9.97;;;8.53;;
8401;SDS011;4238;48.404;9.498;2023-03-17T03:52:05;9.60;;;8.37;;
8401;SDS011;4238;48.404;9.498;2023-03-17T03:54:32;11.27;;;8.90;;
8401;SDS011;4238;48.404;9.498;2023-03-17T03:56:59;11.40;;;9.20;;
8401;SDS011;4238;48.404;9.498;2023-03-17T03:59:26;9.20;;;7.97;;
8401;SDS011;4238;48.404;9.498;2023-03-17T04:01:54;9.87;;;8.53;;
8401;SDS011;4238;48.404;9.498;2023-03-17T04:04:21;10.67;;;9.07;;
8401;SDS011;4238;48.404;9.498;2023-03-17T04:06:49;9.37;;;8.27;;
8401;SDS011;4238;48.404;9.498;2023-03-17T04:09:16;10.53;;;7.83;;
8401;SDS011;4238;48.404;9.498;2023-03-17T04:11:43;10.20;;;8.30;;
8401;SDS011;4238;48.404;9.498;2023-03-17T04:14:10;10.33;;;8.10;;
8401;SDS011;4238;48.404;9.498;2023-03-17T04:16:37;9.17;;;7.60;;
8401;SDS011;4238;48.404;9.498;2023-03-17T04:19:04;8.97;;;7.67;;
8401;SDS011;4238;48.404;9.498;2023-03-17T04:21:31;9.37;;;8.00;;
8401;SDS011;4238;48.404;9.498;2023-03-17T04:23:59;9.90;;;8.37;;
8401;SDS011;4238;48.404;9.498;2023-03-17T04:26:26;10.47;;;8.00;;
8401;SDS011;4238;48.404;9.498;2023-03-17T04:28:53;8.90;;;7.50;;
8401;SDS011;4238;48.404;9.498;2023-03-17T04:31:20;8.00;;;7.20;;
8401;SDS011;4238;48.404;9.498;2023-03-17T04:33:47;9.00;;;7.47;;
8401;SDS011;4238;48.404;9.498;2023-03-17T04:36:15;8.27;;;7.00;;
8401;SDS011;4238;48.404;9.498;2023-03-17T04:38:44;9.53;;;7.00;;
8401;SDS011;4238;48.404;9.498;2023-03-17T04:41:12;8.50;;;7.43;;
8401;SDS011;4238;48.404;9.498;2023-03-17T04:43:39;9.97;;;6.47;;
8401;SDS011;4238;48.404;9.498;2023-03-17T04:46:07;8.07;;;6.80;;
8401;SDS011;4238;48.404;9.498;2023-03-17T04:48:34;8.73;;;6.60;;
8401;SDS011;4238;48.404;9.498;2023-03-17T04:51:01;7.77;;;7.00;;
8401;SDS011;4238;48.404;9.498;2023-03-17T04:53:28;9.27;;;8.03;;
8401;SDS011;4238;48.404;9.498;2023-03-17T04:55:55;8.37;;;6.33;;
8401;SDS011;4238;48.404;9.498;2023-03-17T04:58:23;7.00;;;6.23;;
8401;SDS011;4238;48.404;9.498;2023-03-17T05:00:50;8.73;;;7.83;;
8401;SDS011;4238;48.404;9.498;2023-03-17T05:03:17;15.80;;;11.73;;
8401;SDS011;4238;48.404;9.498;2023-03-17T05:05:45;16.97;;;11.77;;
8401;SDS011;4238;48.404;9.498;2023-03-17T05:08:12;13.73;;;9.90;;
8401;SDS011;4238;48.404;9.498;2023-03-17T05:10:39;13.07;;;10.53;;
8401;SDS011;4238;48.404;9.498;2023-03-17T05:13:06;12.13;;;10.83;;
8401;SDS011;4238;48.404;9.498;2023-03-17T05:15:34;12.33;;;8.63;;
8401;SDS011;4238;48.404;9.498;2023-03-17T05:18:01;7.80;;;7.03;;
8401;SDS011;4238;48.404;9.498;2023-03-17T05:20:28;7.07;;;6.30;;
8401;SDS011;4238;48.404;9.498;2023-03-17T05:22:55;6.50;;;5.63;;
8401;SDS011;4238;48.404;9.498;2023-03-17T05:25:22;7.00;;;5.70;;
8401;SDS011;4238;48.404;9.498;2023-03-17T05:27:49;6.33;;;5.63;;
8401;SDS011;4238;48.404;9.498;2023-03-17T05:30:16;6.50;;;5.90;;
8401;SDS011;4238;48.404;9.498;2023-03-17T05:32:44;6.10;;;5.43;;
8401;SDS011;4238;48.404;9.498;2023-03-17T05:35:11;6.13;;;5.20;;
8401;SDS011;4238;48.404;9.498;2023-03-17T05:37:38;6.22;;;5.63;;
8401;SDS011;4238;48.404;9.498;2023-03-17T05:40:05;5.00;;;4.40;;
8401;SDS011;4238;48.404;9.498;2023-03-17T05:42:33;3.93;;;3.60;;
8401;SDS011;4238;48.404;9.498;2023-03-17T05:45:00;3.70;;;3.40;;
8401;SDS011;4238;48.404;9.498;2023-03-17T05:47:29;4.67;;;4.00;;
8401;SDS011;4238;48.404;9.498;2023-03-17T05:49:57;2.90;;;2.60;;
8401;SDS011;4238;48.404;9.498;2023-03-17T05:52:24;5.23;;;3.83;;
8401;SDS011;4238;48.404;9.498;2023-03-17T05:54:52;4.60;;;3.87;;
8401;SDS011;4238;48.404;9.498;2023-03-17T05:57:19;5.57;;;5.07;;
8401;SDS011;4238;48.404;9.498;2023-03-17T05:59:46;8.20;;;6.30;;
8401;SDS011;4238;48.404;9.498;2023-03-17T06:02:14;2.37;;;2.27;;
8401;SDS011;4238;48.404;9.498;2023-03-17T06:04:42;3.37;;;2.10;;
8401;SDS011;4238;48.404;9.498;2023-03-17T06:07:10;1.97;;;1.87;;
8401;SDS011;4238;48.404;9.498;2023-03-17T06:09:37;3.40;;;1.87;;
8401;SDS011;4238;48.404;9.498;2023-03-17T06:12:06;3.20;;;2.93;;
8401;SDS011;4238;48.404;9.498;2023-03-17T06:14:33;5.37;;;4.70;;
8401;SDS011;4238;48.404;9.498;2023-03-17T06:17:00;2.97;;;2.77;;
8401;SDS011;4238;48.404;9.498;2023-03-17T06:19:27;1.80;;;1.60;;
8401;SDS011;4238;48.404;9.498;2023-03-17T06:21:54;1.60;;;1.50;;
8401;SDS011;4238;48.404;9.498;2023-03-17T06:24:23;2.13;;;1.93;;
8401;SDS011;4238;48.404;9.498;2023-03-17T06:26:51;2.00;;;1.80;;
8401;SDS011;4238;48.404;9.498;2023-03-17T06:29:18;1.40;;;1.30;;
8401;SDS011;4238;48.404;9.498;2023-03-17T06:31:45;4.30;;;3.77;;
8401;SDS011;4238;48.404;9.498;2023-03-17T06:34:15;6.17;;;5.57;;
8401;SDS011;4238;48.404;9.498;2023-03-17T06:36:42;7.13;;;6.43;;
8401;SDS011;4238;48.404;9.498;2023-03-17T06:39:09;7.93;;;6.17;;
8401;SDS011;4238;48.404;9.498;2023-03-17T06:41:38;6.97;;;5.67;;
8401;SDS011;4238;48.404;9.498;2023-03-17T06:44:05;13.73;;;9.53;;
8401;SDS011;4238;48.404;9.498;2023-03-17T06:46:32;33.03;;;20.80;;
8401;SDS011;4238;48.404;9.498;2023-03-17T06:49:00;25.17;;;15.13;;
8401;SDS011;4238;48.404;9.498;2023-03-17T06:51:27;26.83;;;17.97;;
8401;SDS011;4238;48.404;9.498;2023-03-17T06:53:54;22.63;;;16.47;;
8401;SDS011;4238;48.404;9.498;2023-03-17T06:56:21;17.83;;;12.57;;
8401;SDS011;4238;48.404;9.498;2023-03-17T06:58:50;15.23;;;11.80;;
8401;SDS011;4238;48.404;9.498;2023-03-17T07:01:18;65.33;;;13.53;;
8401;SDS011;4238;48.404;9.498;2023-03-17T07:03:44;24.00;;;9.30;;
8401;SDS011;4238;48.404;9.498;2023-03-17T07:06:11;15.57;;;9.40;;
8401;SDS011;4238;48.404;9.498;2023-03-17T07:08:38;11.93;;;9.33;;
8401;SDS011;4238;48.404;9.498;2023-03-17T07:11:05;41.60;;;27.40;;
8401;SDS011;4238;48.404;9.498;2023-03-17T07:13:33;61.80;;;31.40;;
8401;SDS011;4238;48.404;9.498;2023-03-17T07:16:04;31.57;;;20.20;;
8401;SDS011;4238;48.404;9.498;2023-03-17T07:18:31;21.47;;;13.27;;
8401;SDS011;4238;48.404;9.498;2023-03-17T07:20:59;13.33;;;10.37;;
8401;SDS011;4238;48.404;9.498;2023-03-17T07:23:27;16.10;;;13.03;;
8401;SDS011;4238;48.404;9.498;2023-03-17T07:25:55;12.37;;;9.70;;
8401;SDS011;4238;48.404;9.498;2023-03-17T07:28:22;8.97;;;6.93;;
8401;SDS011;4238;48.404;9.498;2023-03-17T07:30:49;3.83;;;2.67;;
8401;SDS011;4238;48.404;9.498;2023-03-17T07:33:18;4.90;;;3.73;;
8401;SDS011;4238;48.404;9.498;2023-03-17T07:35:45;3.00;;;2.67;;
8401;SDS011;4238;48.404;9.498;2023-03-17T07:38:13;2.70;;;2.50;;
8401;SDS011;4238;48.404;9.498;2023-03-17T07:40:41;1.57;;;1.47;;
8401;SDS011;4238;48.404;9.498;2023-03-17T07:43:08;1.93;;;1.73;;
8401;SDS011;4238;48.404;9.498;2023-03-17T07:45:35;1.50;;;1.50;;
8401;SDS011;4238;48.404;9.498;2023-03-17T07:48:03;5.90;;;2.40;;
8401;SDS011;4238;48.404;9.498;2023-03-17T07:50:31;7.00;;;2.90;;
8401;SDS011;4238;48.404;9.498;2023-03-17T07:52:59;4.50;;;2.30;;
8401;SDS011;4238;48.404;9.498;2023-03-17T07:55:27;10.40;;;2.13;;
8401;SDS011;4238;48.404;9.498;2023-03-17T07:57:54;5.37;;;2.47;;
8401;SDS011;4238;48.404;9.498;2023-03-17T08:00:21;12.93;;;3.27;;
8401;SDS011;4238;48.404;9.498;2023-03-17T08:02:48;2.13;;;1.93;;
8401;SDS011;4238;48.404;9.498;2023-03-17T08:05:15;16.60;;;4.83;;
8401;SDS011;4238;48.404;9.498;2023-03-17T08:07:44;2.60;;;2.40;;
8401;SDS011;4238;48.404;9.498;2023-03-17T08:10:11;12.53;;;3.67;;
8401;SDS011;4238;48.404;9.498;2023-03-17T08:12:38;5.63;;;4.20;;
8401;SDS011;4238;48.404;9.498;2023-03-17T08:15:06;2.20;;;2.10;;
8401;SDS011;4238;48.404;9.498;2023-03-17T08:17:34;2.80;;;2.43;;
8401;SDS011;4238;48.404;9.498;2023-03-17T08:20:02;4.27;;;2.70;;
8401;SDS011;4238;48.404;9.498;2023-03-17T08:22:29;2.15;;;2.05;;
8401;SDS011;4238;48.404;9.498;2023-03-17T08:24:58;2.50;;;2.30;;
8401;SDS011;4238;48.404;9.498;2023-03-17T08:27:25;2.35;;;2.15;;
8401;SDS011;4238;48.404;9.498;2023-03-17T08:29:52;2.60;;;2.50;;
8401;SDS011;4238;48.404;9.498;2023-03-17T08:32:19;2.22;;;2.05;;
8401;SDS011;4238;48.404;9.498;2023-03-17T08:34:47;2.40;;;2.30;;
8401;SDS011;4238;48.404;9.498;2023-03-17T08:37:18;2.67;;;2.20;;
8401;SDS011;4238;48.404;9.498;2023-03-17T08:39:46;1.95;;;1.85;;
8401;SDS011;4238;48.404;9.498;2023-03-17T08:42:14;2.28;;;2.08;;
8401;SDS011;4238;48.404;9.498;2023-03-17T08:44:41;1.63;;;1.52;;
8401;SDS011;4238;48.404;9.498;2023-03-17T08:47:08;2.10;;;2.00;;
8401;SDS011;4238;48.404;9.498;2023-03-17T08:49:35;2.97;;;2.17;;
8401;SDS011;4238;48.404;9.498;2023-03-17T08:52:02;2.33;;;2.13;;
8401;SDS011;4238;48.404;9.498;2023-03-17T08:54:29;1.83;;;1.73;;
8401;SDS011;4238;48.404;9.498;2023-03-17T08:56:56;5.03;;;4.53;;
8401;SDS011;4238;48.404;9.498;2023-03-17T08:59:27;1.95;;;1.83;;
8401;SDS011;4238;48.404;9.498;2023-03-17T09:01:53;25.67;;;16.35;;
8401;SDS011;4238;48.404;9.498;2023-03-17T09:04:20;2.63;;;2.42;;
8401;SDS011;4238;48.404;9.498;2023-03-17T09:06:48;2.65;;;2.00;;
8401;SDS011;4238;48.404;9.498;2023-03-17T09:09:15;2.22;;;2.10;;
8401;SDS011;4238;48.404;9.498;2023-03-17T09:11:42;2.22;;;2.13;;
8401;SDS011;4238;48.404;9.498;2023-03-17T09:14:09;2.58;;;2.38;;
8401;SDS011;4238;48.404;9.498;2023-03-17T09:16:37;2.50;;;2.40;;
8401;SDS011;4238;48.404;9.498;2023-03-17T09:19:04;2.53;;;2.40;;
8401;SDS011;4238;48.404;9.498;2023-03-17T09:21:31;2.63;;;2.03;;
8401;SDS011;4238;48.404;9.498;2023-03-17T09:23:58;4.60;;;2.30;;
8401;SDS011;4238;48.404;9.498;2023-03-17T09:26:24;2.30;;;2.20;;
8401;SDS011;4238;48.404;9.498;2023-03-17T09:28:52;2.58;;;2.40;;
8401;SDS011;4238;48.404;9.498;2023-03-17T09:31:20;3.33;;;2.58;;
8401;SDS011;4238;48.404;9.498;2023-03-17T09:33:48;2.70;;;2.50;;
8401;SDS011;4238;48.404;9.498;2023-03-17T09:36:16;2.33;;;2.13;;
8401;SDS011;4238;48.404;9.498;2023-03-17T09:38:43;3.25;;;2.22;;
8401;SDS011;4238;48.404;9.498;2023-03-17T09:41:16;2.53;;;2.30;;
8401;SDS011;4238;48.404;9.498;2023-03-17T09:43:55;2.03;;;1.92;;
8401;SDS011;4238;48.404;9.498;2023-03-17T09:46:31;2.30;;;2.10;;
8401;SDS011;4238;48.404;9.498;2023-03-17T09:49:08;2.10;;;2.00;;
8401;SDS011;4238;48.404;9.498;2023-03-17T09:51:38;2.70;;;2.50;;
8401;SDS011;4238;48.404;9.498;2023-03-17T09:54:09;2.60;;;1.95;;
8401;SDS011;4238;48.404;9.498;2023-03-17T09:56:40;2.10;;;2.00;;
8401;SDS011;4238;48.404;9.498;2023-03-17T09:59:17;2.20;;;1.98;;
8401;SDS011;4238;48.404;9.498;2023-03-17T10:01:57;2.45;;;2.25;;
8401;SDS011;4238;48.404;9.498;2023-03-17T10:04:25;1.50;;;1.42;;
8401;SDS011;4238;48.404;9.498;2023-03-17T10:06:54;1.98;;;1.88;;
8401;SDS011;4238;48.404;9.498;2023-03-17T10:09:26;1.80;;;1.70;;
8401;SDS011;4238;48.404;9.498;2023-03-17T10:12:01;2.53;;;2.10;;
8401;SDS011;4238;48.404;9.498;2023-03-17T10:14:35;2.00;;;1.90;;
8401;SDS011;4238;48.404;9.498;2023-03-17T10:17:11;1.95;;;1.85;;
8401;SDS011;4238;48.404;9.498;2023-03-17T10:19:43;2.60;;;2.40;;
8401;SDS011;4238;48.404;9.498;2023-03-17T10:22:16;3.53;;;2.03;;
8401;SDS011;4238;48.404;9.498;2023-03-17T10:24:48;2.10;;;2.00;;
8401;SDS011;4238;48.404;9.498;2023-03-17T10:27:17;2.40;;;2.28;;
8401;SDS011;4238;48.404;9.498;2023-03-17T10:29:45;2.17;;;2.08;;
8401;SDS011;4238;48.404;9.498;2023-03-17T10:32:13;2.10;;;1.90;;
8401;SDS011;4238;48.404;9.498;2023-03-17T10:34:40;2.20;;;2.10;;
8401;SDS011;4238;48.404;9.498;2023-03-17T10:37:11;2.83;;;1.95;;
8401;SDS011;4238;48.404;9.498;2023-03-17T10:39:43;2.80;;;2.35;;
8401;SDS011;4238;48.404;9.498;2023-03-17T10:42:18;1.60;;;1.50;;
8401;SDS011;4238;48.404;9.498;2023-03-17T10:44:49;2.67;;;2.00;;
8401;SDS011;4238;48.404;9.498;2023-03-17T10:47:24;1.73;;;1.63;;
8401;SDS011;4238;48.404;9.498;2023-03-17T10:49:56;2.13;;;2.03;;
8401;SDS011;4238;48.404;9.498;2023-03-17T10:52:28;2.33;;;2.22;;
8401;SDS011;4238;48.404;9.498;2023-03-17T10:55:00;2.50;;;2.30;;
8401;SDS011;4238;48.404;9.498;2023-03-17T10:57:30;2.05;;;1.95;;
8401;SDS011;4238;48.404;9.498;2023-03-17T10:59:58;2.10;;;2.00;;
8401;SDS011;4238;48.404;9.498;2023-03-17T11:02:30;1.88;;;1.77;;
8401;SDS011;4238;48.404;9.498;2023-03-17T11:05:03;2.13;;;2.03;;
8401;SDS011;4238;48.404;9.498;2023-03-17T11:07:34;1.48;;;1.38;;
8401;SDS011;4238;48.404;9.498;2023-03-17T11:10:04;2.42;;;1.88;;
8401;SDS011;4238;48.404;9.498;2023-03-17T11:12:42;2.00;;;1.90;;
8401;SDS011;4238;48.404;9.498;2023-03-17T11:15:10;1.67;;;1.58;;
8401;SDS011;4238;48.404;9.498;2023-03-17T11:17:42;1.20;;;1.20;;
8401;SDS011;4238;48.404;9.498;2023-03-17T11:20:22;1.00;;;1.00;;
8401;SDS011;4238;48.404;9.498;2023-03-17T11:22:58;1.30;;;1.30;;
8401;SDS011;4238;48.404;9.498;2023-03-17T11:25:31;1.73;;;1.30;;
8401;SDS011;4238;48.404;9.498;2023-03-17T11:28:05;3.83;;;3.47;;
8401;SDS011;4238;48.404;9.498;2023-03-17T11:30:42;3.10;;;2.28;;
8401;SDS011;4238;48.404;9.498;2023-03-17T11:33:20;1.63;;;1.40;;
8401;SDS011;4238;48.404;9.498;2023-03-17T11:36:00;1.48;;;1.38;;
8401;SDS011;4238;48.404;9.498;2023-03-17T11:38:35;1.55;;;1.45;;
8401;SDS011;4238;48.404;9.498;2023-03-17T11:41:13;1.60;;;1.50;;
8401;SDS011;4238;48.404;9.498;2023-03-17T11:44:16;1.38;;;1.30;;
8401;SDS011;4238;48.404;9.498;2023-03-17T11:47:01;1.17;;;1.13;;
8401;SDS011;4238;48.404;9.498;2023-03-17T11:49:39;1.50;;;1.40;;
8401;SDS011;4238;48.404;9.498;2023-03-17T11:52:10;2.08;;;1.92;;
8401;SDS011;4238;48.404;9.498;2023-03-17T11:54:45;2.17;;;2.08;;
8401;SDS011;4238;48.404;9.498;2023-03-17T11:57:18;1.75;;;1.65;;
8401;SDS011;4238;48.404;9.498;2023-03-17T11:59:49;1.63;;;1.52;;
8401;SDS011;4238;48.404;9.498;2023-03-17T12:02:21;1.15;;;1.15;;
8401;SDS011;4238;48.404;9.498;2023-03-17T12:04:53;1.20;;;1.10;;
8401;SDS011;4238;48.404;9.498;2023-03-17T12:07:26;1.13;;;1.10;;
8401;SDS011;4238;48.404;9.498;2023-03-17T12:09:59;1.50;;;1.40;;
8401;SDS011;4238;48.404;9.498;2023-03-17T12:12:32;1.20;;;1.15;;
8401;SDS011;4238;48.404;9.498;2023-03-17T12:15:04;0.80;;;0.80;;
8401;SDS011;4238;48.404;9.498;2023-03-17T12:17:38;0.93;;;0.93;;
8401;SDS011;4238;48.404;9.498;2023-03-17T12:20:13;1.13;;;1.13;;
8401;SDS011;4238;48.404;9.498;2023-03-17T12:22:46;1.15;;;1.15;;
8401;SDS011;4238;48.404;9.498;2023-03-17T12:25:22;1.00;;;0.98;;
8401;SDS011;4238;48.404;9.498;2023-03-17T12:27:56;1.13;;;1.13;;
8401;SDS011;4238;48.404;9.498;2023-03-17T12:30:29;1.60;;;1.50;;
8401;SDS011;4238;48.404;9.498;2023-03-17T12:33:05;1.58;;;1.48;;
8401;SDS011;4238;48.404;9.498;2023-03-17T12:35:40;1.77;;;1.65;;
8401;SDS011;4238;48.404;9.498;2023-03-17T12:38:10;1.63;;;1.55;;
8401;SDS011;4238;48.404;9.498;2023-03-17T12:40:47;1.95;;;1.80;;
8401;SDS011;4238;48.404;9.498;2023-03-17T12:43:39;1.77;;;1.67;;
8401;SDS011;4238;48.404;9.498;2023-03-17T12:46:20;2.05;;;1.58;;
8401;SDS011;4238;48.404;9.498;2023-03-17T12:52:21;1.83;;;1.52;;
8401;SDS011;4238;48.404;9.498;2023-03-17T12:54:58;1.95;;;1.85;;
8401;SDS011;4238;48.404;9.498;2023-03-17T12:57:27;1.67;;;1.58;;
8401;SDS011;4238;48.404;9.498;2023-03-17T12:59:57;1.92;;;1.83;;
8401;SDS011;4238;48.404;9.498;2023-03-17T13:02:31;2.17;;;2.08;;
8401;SDS011;4238;48.404;9.498;2023-03-17T13:05:04;2.53;;;1.63;;
8401;SDS011;4238;48.404;9.498;2023-03-17T13:07:36;1.85;;;1.70;;
8401;SDS011;4238;48.404;9.498;2023-03-17T13:10:12;1.98;;;1.88;;
8401;SDS011;4238;48.404;9.498;2023-03-17T13:13:10;1.48;;;1.38;;
8401;SDS011;4238;48.404;9.498;2023-03-17T13:15:48;1.92;;;1.73;;
8401;SDS011;4238;48.404;9.498;2023-03-17T13:21:12;1.73;;;1.60;;
8401;SDS011;4238;48.404;9.498;2023-03-17T13:23:42;1.38;;;1.35;;
8401;SDS011;4238;48.404;9.498;2023-03-17T13:26:12;2.22;;;1.90;;
8401;SDS011;4238;48.404;9.498;2023-03-17T13:28:41;2.30;;;1.60;;
8401;SDS011;4238;48.404;9.498;2023-03-17T13:34:11;1.73;;;1.60;;
8401;SDS011;4238;48.404;9.498;2023-03-17T13:36:44;1.25;;;1.25;;
8401;SDS011;4238;48.404;9.498;2023-03-17T13:39:33;1.98;;;1.88;;
8401;SDS011;4238;48.404;9.498;2023-03-17T13:42:24;1.80;;;1.48;;
8401;SDS011;4238;48.404;9.498;2023-03-17T13:45:33;2.00;;;1.90;;
8401;SDS011;4238;48.404;9.498;2023-03-17T13:48:23;1.98;;;1.77;;
8401;SDS011;4238;48.404;9.498;2023-03-17T13:50:58;1.77;;;1.67;;
8401;SDS011;4238;48.404;9.498;2023-03-17T13:53:46;1.95;;;1.75;;
8401;SDS011;4238;48.404;9.498;2023-03-17T13:56:21;1.88;;;1.77;;
8401;SDS011;4238;48.404;9.498;2023-03-17T13:58:54;2.08;;;1.92;;
8401;SDS011;4238;48.404;9.498;2023-03-17T14:01:31;2.17;;;2.08;;
8401;SDS011;4238;48.404;9.498;2023-03-17T14:04:05;2.08;;;1.98;;
8401;SDS011;4238;48.404;9.498;2023-03-17T14:06:37;2.33;;;2.13;;
8401;SDS011;4238;48.404;9.498;2023-03-17T14:09:07;2.30;;;2.10;;
8401;SDS011;4238;48.404;9.498;2023-03-17T14:11:36;1.98;;;1.88;;
8401;SDS011;4238;48.404;9.498;2023-03-17T14:14:27;2.20;;;2.05;;
8401;SDS011;4238;48.404;9.498;2023-03-17T14:17:03;1.90;;;1.80;;
8401;SDS011;4238;48.404;9.498;2023-03-17T14:19:36;2.28;;;2.17;;
8401;SDS011;4238;48.404;9.498;2023-03-17T14:22:17;2.78;;;2.20;;
8401;SDS011;4238;48.404;9.498;2023-03-17T14:24:49;2.55;;;2.35;;
8401;SDS011;4238;48.404;9.498;2023-03-17T14:27:18;2.55;;;2.35;;
8401;SDS011;4238;48.404;9.498;2023-03-17T14:29:47;3.13;;;2.88;;
8401;SDS011;4238;48.404;9.498;2023-03-17T14:32:16;3.25;;;2.90;;
8401;SDS011;4238;48.404;9.498;2023-03-17T14:34:46;3.95;;;3.20;;
8401;SDS011;4238;48.404;9.498;2023-03-17T14:37:17;3.60;;;3.30;;
8401;SDS011;4238;48.404;9.498;2023-03-17T14:39:44;3.90;;;3.30;;
8401;SDS011;4238;48.404;9.498;2023-03-17T14:42:12;3.45;;;3.20;;
8401;SDS011;4238;48.404;9.498;2023-03-17T14:44:40;3.85;;;3.50;;
8401;SDS011;4238;48.404;9.498;2023-03-17T14:47:13;3.92;;;3.53;;
8401;SDS011;4238;48.404;9.498;2023-03-17T14:49:44;4.20;;;3.80;;
8401;SDS011;4238;48.404;9.498;2023-03-17T14:52:19;4.82;;;4.32;;
8401;SDS011;4238;48.404;9.498;2023-03-17T14:54:50;5.35;;;4.20;;
8401;SDS011;4238;48.404;9.498;2023-03-17T14:57:20;5.00;;;4.50;;
8401;SDS011;4238;48.404;9.498;2023-03-17T14:59:54;4.60;;;4.10;;
8401;SDS011;4238;48.404;9.498;2023-03-17T15:02:27;4.90;;;4.50;;
8401;SDS011;4238;48.404;9.498;2023-03-17T15:05:00;5.20;;;4.72;;
8401;SDS011;4238;48.404;9.498;2023-03-17T15:07:31;6.93;;;5.55;;
8401;SDS011;4238;48.404;9.498;2023-03-17T15:10:02;6.13;;;5.50;;
8401;SDS011;4238;48.404;9.498;2023-03-17T15:12:29;6.03;;;5.43;;
8401;SDS011;4238;48.404;9.498;2023-03-17T15:14:57;6.70;;;6.00;;
8401;SDS011;4238;48.404;9.498;2023-03-17T15:17:29;6.25;;;5.63;;
8401;SDS011;4238;48.404;9.498;2023-03-17T15:19:59;8.65;;;6.40;;
8401;SDS011;4238;48.404;9.498;2023-03-17T15:22:29;7.43;;;6.35;;
8401;SDS011;4238;48.404;9.498;2023-03-17T15:24:58;8.00;;;6.65;;
8401;SDS011;4238;48.404;9.498;2023-03-17T15:27:27;7.00;;;6.30;;
8401;SDS011;4238;48.404;9.498;2023-03-17T15:29:55;6.72;;;6.13;;
8401;SDS011;4238;48.404;9.498;2023-03-17T15:32:23;8.52;;;6.78;;
8401;SDS011;4238;48.404;9.498;2023-03-17T15:34:53;7.72;;;6.75;;
8401;SDS011;4238;48.404;9.498;2023-03-17T15:37:22;7.05;;;6.35;;
8401;SDS011;4238;48.404;9.498;2023-03-17T15:39:51;7.40;;;6.35;;
8401;SDS011;4238;48.404;9.498;2023-03-17T15:42:20;7.40;;;5.97;;
8401;SDS011;4238;48.404;9.498;2023-03-17T15:44:49;6.82;;;5.95;;